Yining, China
Current Conditions -  °F | °C
As of 3:00 AM on Sunday 21 Dec 2014 (Local Time) from UAAA Reporting Station
Smoke Smoke  
Wind Chill: 17°   Ceiling: 10000
Heat Index: 23°   Visibility: 0.28mi
Dew Point: 18°   Wind: 4mph
Humidity: 80%   Direction: 160°SSE
Pressure: 30.18"   Gusts: NA
Location:  43.9°N, 81.35°E
Report Text: UAAA 201900Z 16002MPS 0450 R23R/1500N R23L/1300U BR FU BKN100M05/M08 Q1022 R88/81//60 NOSIG
Loading
Personal Weather Stations






























Interactive Weather Map New forecast layout! Learn more

10-Day Weather Forecast

Advertisements
Track Severe Weather on mobile